createdAt,value
2023-04-16T00:02:14.299Z,6.30
2023-04-16T00:04:41.332Z,3.13
2023-04-16T00:07:10.408Z,3.67
2023-04-16T00:09:39.526Z,7.75
2023-04-16T00:12:06.729Z,4.72
2023-04-16T00:14:33.342Z,7.97
2023-04-16T00:16:59.895Z,4.55
2023-04-16T00:19:26.512Z,4.90
2023-04-16T00:21:53.331Z,6.97
2023-04-16T00:24:19.956Z,5.53
2023-04-16T00:26:46.518Z,8.55
2023-04-16T00:29:17.637Z,8.32
2023-04-16T00:31:44.220Z,4.57
2023-04-16T00:34:10.768Z,5.43
2023-04-16T00:36:41.112Z,6.45
2023-04-16T00:39:07.848Z,5.25
2023-04-16T00:41:34.677Z,6.63
2023-04-16T00:44:01.729Z,12.68
2023-04-16T00:46:31.993Z,7.85
2023-04-16T00:49:00.882Z,6.75
2023-04-16T00:51:27.708Z,5.75
2023-04-16T00:53:55.262Z,6.55
2023-04-16T00:56:23.969Z,6.32
2023-04-16T00:58:50.846Z,6.68
2023-04-16T01:01:17.601Z,5.72
2023-04-16T01:03:46.563Z,6.70
2023-04-16T01:06:18.944Z,7.57
2023-04-16T01:08:46.480Z,4.72
2023-04-16T01:11:17.668Z,5.97
2023-04-16T01:13:44.406Z,7.30
2023-04-16T01:16:14.638Z,7.60
2023-04-16T01:18:41.764Z,6.93
2023-04-16T01:21:09.017Z,6.60
2023-04-16T01:23:38.662Z,8.85
2023-04-16T01:26:05.228Z,7.15
2023-04-16T01:28:31.821Z,7.28
2023-04-16T01:30:59.990Z,6.40
2023-04-16T01:33:36.875Z,7.00
2023-04-16T01:36:03.756Z,8.65
2023-04-16T01:38:30.331Z,7.18
2023-04-16T01:40:59.267Z,9.30
2023-04-16T01:43:26.085Z,9.43
2023-04-16T01:45:59.318Z,7.28
2023-04-16T01:48:28.334Z,6.18
2023-04-16T01:50:58.384Z,7.13
2023-04-16T01:53:24.965Z,8.15
2023-04-16T01:55:51.504Z,8.00
2023-04-16T01:58:20.582Z,10.43
2023-04-16T02:00:50.927Z,8.70
2023-04-16T02:03:18.409Z,9.95
2023-04-16T02:05:45.181Z,7.57
2023-04-16T02:08:11.745Z,6.65
2023-04-16T02:10:38.307Z,8.48
2023-04-16T02:13:05.130Z,9.68
2023-04-16T02:15:31.822Z,9.65
2023-04-16T02:17:58.459Z,7.45
2023-04-16T02:20:25.744Z,7.10
2023-04-16T02:22:56.156Z,7.97
2023-04-16T02:25:28.841Z,9.30
2023-04-16T02:27:57.517Z,11.50
2023-04-16T02:30:31.067Z,8.77
2023-04-16T02:32:57.832Z,10.43
2023-04-16T02:35:24.483Z,10.13
2023-04-16T02:37:51.081Z,8.45
2023-04-16T02:40:17.727Z,8.23
2023-04-16T02:42:44.267Z,8.02
2023-04-16T02:45:11.561Z,9.63
2023-04-16T02:47:38.206Z,11.55
2023-04-16T02:50:07.889Z,10.40
2023-04-16T02:52:34.532Z,8.57
2023-04-16T02:55:01.355Z,6.80
2023-04-16T02:57:27.954Z,8.10
2023-04-16T02:59:57.427Z,10.63
2023-04-16T03:02:26.679Z,10.68
2023-04-16T03:04:54.130Z,13.40
2023-04-16T03:07:21.048Z,12.02
2023-04-16T03:09:47.674Z,11.43
2023-04-16T03:12:14.318Z,12.63
2023-04-16T03:14:41.096Z,15.02
2023-04-16T03:17:07.709Z,13.07
2023-04-16T03:19:34.317Z,10.38
2023-04-16T03:22:01.006Z,10.98
2023-04-16T03:24:28.041Z,7.60
2023-04-16T03:26:56.962Z,11.55
2023-04-16T03:29:25.314Z,15.05
2023-04-16T03:31:52.681Z,8.52
2023-04-16T03:34:22.562Z,9.00
2023-04-16T03:36:49.183Z,8.73
2023-04-16T03:39:16.401Z,12.45
2023-04-16T03:41:43.057Z,8.05
2023-04-16T03:44:09.841Z,12.93
2023-04-16T03:46:36.734Z,12.52
2023-04-16T03:49:06.114Z,13.77
2023-04-16T03:51:33.644Z,8.65
2023-04-16T03:54:00.352Z,11.63
2023-04-16T03:56:27.992Z,9.38
2023-04-16T03:58:55.764Z,11.73
2023-04-16T04:01:22.436Z,7.13
2023-04-16T04:03:49.681Z,7.63
2023-04-16T04:06:19.016Z,9.75
2023-04-16T04:08:45.680Z,8.48
2023-04-16T04:11:13.928Z,9.38
2023-04-16T04:13:43.047Z,6.68
2023-04-16T04:16:09.668Z,12.07
2023-04-16T04:18:36.255Z,10.98
2023-04-16T04:21:08.923Z,15.35
2023-04-16T04:23:37.959Z,10.65
2023-04-16T04:26:07.289Z,9.43
2023-04-16T04:28:35.083Z,12.18
2023-04-16T04:31:04.111Z,8.95
2023-04-16T04:33:31.383Z,10.65
2023-04-16T04:35:58.221Z,8.43
2023-04-16T04:38:25.505Z,11.10
2023-04-16T04:40:59.012Z,10.07
2023-04-16T04:43:30.398Z,8.45
2023-04-16T04:45:57.018Z,11.10
2023-04-16T04:48:27.537Z,9.00
2023-04-16T04:50:54.946Z,10.70
2023-04-16T04:53:21.575Z,12.70
2023-04-16T04:55:52.119Z,12.23
2023-04-16T04:58:20.868Z,12.15
2023-04-16T05:00:47.485Z,14.30
2023-04-16T05:03:19.944Z,11.25
2023-04-16T05:05:46.658Z,14.80
2023-04-16T05:08:13.477Z,13.50
2023-04-16T05:10:40.020Z,14.38
2023-04-16T05:13:06.613Z,14.50
2023-04-16T05:15:38.711Z,19.27
2023-04-16T05:18:05.349Z,15.05
2023-04-16T05:20:32.421Z,18.58
2023-04-16T05:22:58.986Z,20.90
2023-04-16T05:25:25.575Z,18.83
2023-04-16T05:27:52.104Z,20.17
2023-04-16T05:30:18.969Z,20.30
2023-04-16T05:32:45.668Z,18.58
2023-04-16T05:35:12.288Z,18.70
2023-04-16T05:37:41.181Z,16.05
2023-04-16T05:40:08.521Z,16.55
2023-04-16T05:42:35.260Z,18.58
2023-04-16T05:45:04.331Z,17.88
2023-04-16T05:47:32.996Z,17.42
2023-04-16T05:49:59.663Z,23.08
2023-04-16T05:52:26.194Z,19.30
2023-04-16T05:54:52.766Z,22.20
2023-04-16T05:57:19.304Z,21.90
2023-04-16T05:59:46.519Z,21.02
2023-04-16T06:02:13.212Z,21.23
2023-04-16T06:04:39.833Z,19.88
2023-04-16T06:07:08.106Z,25.00
2023-04-16T06:09:37.141Z,21.02
2023-04-16T06:12:04.191Z,19.02
2023-04-16T06:14:30.927Z,18.13
2023-04-16T06:16:59.749Z,16.67
2023-04-16T06:19:30.840Z,17.65
2023-04-16T06:21:58.528Z,16.23
2023-04-16T06:24:27.617Z,21.27
2023-04-16T06:26:54.557Z,18.63
2023-04-16T06:29:30.423Z,19.92
2023-04-16T06:32:04.223Z,18.42
2023-04-16T06:34:30.964Z,22.83
2023-04-16T06:36:57.533Z,19.30
2023-04-16T06:39:24.090Z,20.30
2023-04-16T06:41:50.960Z,19.70
2023-04-16T06:44:19.004Z,18.17
2023-04-16T06:46:45.982Z,20.10
2023-04-16T06:49:12.814Z,20.17
2023-04-16T06:51:39.408Z,26.25
2023-04-16T06:54:08.048Z,19.98
2023-04-16T06:56:36.437Z,21.83
2023-04-16T06:59:03.710Z,24.40
2023-04-16T07:01:33.202Z,22.23
2023-04-16T07:04:00.202Z,21.45
2023-04-16T07:06:30.054Z,25.17
2023-04-16T07:08:56.577Z,18.60
2023-04-16T07:11:23.380Z,18.52
2023-04-16T07:13:51.089Z,17.13
2023-04-16T07:16:18.075Z,18.73
2023-04-16T07:18:44.733Z,16.88
2023-04-16T07:21:11.340Z,19.80
2023-04-16T07:23:37.935Z,22.20
2023-04-16T07:26:04.482Z,16.42
2023-04-16T07:28:31.050Z,18.42
2023-04-16T07:30:57.684Z,22.55
2023-04-16T07:33:24.667Z,19.95
2023-04-16T07:35:51.403Z,18.20
2023-04-16T07:38:17.970Z,20.15
2023-04-16T07:40:44.601Z,21.25
2023-04-16T07:43:11.411Z,19.58
2023-04-16T07:45:38.009Z,17.92
2023-04-16T07:48:05.331Z,19.90
2023-04-16T07:50:32.414Z,21.45
2023-04-16T07:52:58.995Z,21.65
2023-04-16T07:55:25.653Z,19.77
2023-04-16T07:57:52.280Z,21.25
2023-04-16T08:00:18.897Z,20.23
2023-04-16T08:02:45.766Z,19.83
2023-04-16T08:05:13.003Z,17.13
2023-04-16T08:07:39.597Z,19.50
2023-04-16T08:10:06.737Z,18.17
2023-04-16T08:12:33.385Z,20.95
2023-04-16T08:14:59.966Z,18.33
2023-04-16T08:17:28.305Z,17.90
2023-04-16T08:19:54.914Z,18.58
2023-04-16T08:22:23.915Z,16.67
2023-04-16T08:24:50.573Z,17.50
2023-04-16T08:27:19.988Z,21.63
2023-04-16T08:29:48.027Z,17.95
2023-04-16T08:32:14.701Z,20.55
2023-04-16T08:34:42.069Z,16.98
2023-04-16T08:37:08.973Z,15.85
2023-04-16T08:39:35.804Z,18.60
2023-04-16T08:42:08.965Z,16.77
2023-04-16T08:44:41.576Z,16.20
2023-04-16T08:47:12.450Z,17.95
2023-04-16T08:49:44.952Z,16.00
2023-04-16T08:52:18.553Z,18.42
2023-04-16T08:55:06.894Z,17.25
2023-04-16T08:57:43.825Z,17.02
2023-04-16T09:00:11.523Z,17.60
2023-04-16T09:02:38.904Z,16.05
2023-04-16T09:05:07.656Z,18.38
2023-04-16T09:07:35.321Z,15.90
2023-04-16T09:10:02.843Z,17.23
2023-04-16T09:12:31.153Z,19.08
2023-04-16T09:15:01.037Z,18.30
2023-04-16T09:17:27.926Z,20.05
2023-04-16T09:19:56.446Z,17.77
2023-04-16T09:22:23.157Z,20.73
2023-04-16T09:24:49.693Z,18.90
2023-04-16T09:27:17.204Z,18.17
2023-04-16T09:29:43.799Z,19.10
2023-04-16T09:32:11.796Z,19.83
2023-04-16T09:34:55.560Z,20.65
2023-04-16T09:37:22.158Z,21.02
2023-04-16T09:40:00.238Z,20.15
2023-04-16T09:42:31.779Z,18.00
2023-04-16T09:45:01.333Z,20.03
2023-04-16T09:47:43.135Z,18.85
2023-04-16T09:50:17.798Z,20.02
2023-04-16T09:52:50.898Z,16.85
2023-04-16T09:55:23.845Z,24.42
2023-04-16T09:57:59.033Z,20.60
2023-04-16T10:00:25.686Z,22.80
2023-04-16T10:03:04.495Z,20.33
2023-04-16T10:05:31.154Z,22.88
2023-04-16T10:08:01.978Z,22.83
2023-04-16T10:10:29.270Z,19.65
2023-04-16T10:12:56.155Z,19.65
2023-04-16T10:15:23.297Z,21.80
2023-04-16T10:17:51.313Z,21.88
2023-04-16T10:20:18.785Z,20.17
2023-04-16T10:22:45.965Z,19.95
2023-04-16T10:25:12.933Z,18.30
2023-04-16T10:27:41.188Z,20.60
2023-04-16T10:30:09.229Z,26.42
2023-04-16T10:32:39.390Z,23.90
2023-04-16T10:35:06.740Z,23.48
2023-04-16T10:37:33.448Z,24.48
2023-04-16T10:40:00.302Z,19.88
2023-04-16T10:42:29.156Z,20.83
2023-04-16T10:44:59.613Z,21.55
2023-04-16T10:47:26.574Z,18.85
2023-04-16T10:49:53.329Z,18.95
2023-04-16T10:52:22.232Z,18.40
2023-04-16T10:54:49.628Z,19.00
2023-04-16T10:57:17.951Z,17.60
2023-04-16T10:59:45.825Z,18.50
2023-04-16T11:02:43.780Z,18.30
2023-04-16T11:05:12.725Z,14.55
2023-04-16T11:07:50.272Z,15.38
2023-04-16T11:10:16.872Z,14.27
2023-04-16T11:12:46.614Z,15.02
2023-04-16T11:15:15.004Z,14.43
2023-04-16T11:17:45.878Z,14.52
2023-04-16T11:20:20.480Z,13.98
2023-04-16T11:22:52.072Z,16.33
2023-04-16T11:25:26.025Z,15.48
2023-04-16T11:27:53.225Z,15.07
2023-04-16T11:30:35.324Z,15.13
2023-04-16T11:33:08.845Z,14.27
2023-04-16T11:35:35.575Z,13.23
2023-04-16T11:38:02.179Z,15.05
2023-04-16T11:40:31.924Z,13.65
2023-04-16T11:43:13.483Z,14.68
2023-04-16T11:45:56.094Z,12.90
2023-04-16T11:50:59.730Z,12.90
2023-04-16T11:53:26.872Z,13.48
2023-04-16T11:55:53.458Z,13.10
2023-04-16T11:58:22.098Z,12.65
2023-04-16T12:00:53.567Z,13.55
2023-04-16T12:03:38.228Z,14.40
2023-04-16T12:06:09.448Z,12.65
2023-04-16T12:08:36.117Z,14.23
2023-04-16T12:11:02.714Z,11.23
2023-04-16T12:13:29.360Z,11.32
2023-04-16T12:15:56.871Z,11.38
2023-04-16T12:18:26.665Z,12.55
2023-04-16T12:20:53.487Z,13.57
2023-04-16T12:23:31.058Z,12.60
2023-04-16T12:26:02.151Z,14.20
2023-04-16T12:28:36.629Z,12.43
2023-04-16T12:31:04.052Z,11.88
2023-04-16T12:33:31.192Z,10.48
2023-04-16T12:35:57.835Z,13.15
2023-04-16T12:38:25.440Z,14.13
2023-04-16T12:40:52.671Z,14.82
2023-04-16T12:43:20.648Z,14.70
2023-04-16T12:45:47.312Z,12.20
2023-04-16T12:48:16.182Z,11.63
2023-04-16T12:50:44.057Z,12.35
2023-04-16T12:53:11.388Z,15.15
2023-04-16T12:55:38.082Z,14.57
2023-04-16T12:58:04.684Z,14.23
2023-04-16T13:00:31.289Z,15.02
2023-04-16T13:03:00.416Z,14.57
2023-04-16T13:05:27.243Z,11.43
2023-04-16T13:07:54.385Z,11.48
2023-04-16T13:10:23.291Z,14.38
2023-04-16T13:12:49.849Z,12.52
2023-04-16T13:15:16.478Z,13.75
2023-04-16T13:17:43.113Z,14.77
2023-04-16T13:20:10.463Z,14.40
2023-04-16T13:22:37.220Z,13.98
2023-04-16T13:25:04.363Z,14.25
2023-04-16T13:27:32.382Z,15.10
2023-04-16T13:29:59.081Z,12.85
2023-04-16T13:32:25.806Z,16.48
2023-04-16T13:34:52.430Z,15.52
2023-04-16T13:37:19.058Z,15.55
2023-04-16T13:39:45.811Z,13.50
2023-04-16T13:42:12.421Z,14.52
2023-04-16T13:44:38.951Z,13.45
2023-04-16T13:47:05.657Z,16.40
2023-04-16T13:49:36.137Z,16.67
2023-04-16T13:52:03.220Z,15.45
2023-04-16T13:54:29.853Z,14.68
2023-04-16T13:56:59.160Z,15.15
2023-04-16T13:59:26.386Z,13.88
2023-04-16T14:01:53.096Z,16.55
2023-04-16T14:04:19.822Z,17.85
2023-04-16T14:06:46.451Z,17.02
2023-04-16T14:09:13.131Z,20.30
2023-04-16T14:11:40.174Z,19.20
2023-04-16T14:14:06.946Z,18.63
2023-04-16T14:16:34.424Z,18.25
2023-04-16T14:19:01.127Z,19.13
2023-04-16T14:21:27.730Z,16.88
2023-04-16T14:23:54.271Z,17.98
2023-04-16T14:26:20.960Z,19.30
2023-04-16T14:28:47.910Z,17.42
2023-04-16T14:31:14.682Z,18.92
2023-04-16T14:33:41.304Z,17.23
2023-04-16T14:36:08.009Z,16.55
2023-04-16T14:38:34.621Z,18.75
2023-04-16T14:41:01.208Z,15.50
2023-04-16T14:43:27.813Z,19.65
2023-04-16T14:45:54.526Z,16.52
2023-04-16T14:48:21.933Z,16.83
2023-04-16T14:50:48.656Z,17.85
2023-04-16T14:53:15.277Z,16.70
2023-04-16T14:55:44.100Z,17.52
2023-04-16T14:58:11.074Z,17.85
2023-04-16T15:00:37.840Z,18.50
2023-04-16T15:03:05.578Z,21.27
2023-04-16T15:05:32.543Z,17.08
2023-04-16T15:07:59.178Z,18.63
2023-04-16T15:10:25.759Z,21.80
2023-04-16T15:12:54.473Z,18.75
2023-04-16T15:15:21.219Z,17.13
2023-04-16T15:17:47.982Z,17.13
2023-04-16T15:20:14.893Z,17.08
2023-04-16T15:22:41.866Z,17.38
2023-04-16T15:25:08.860Z,18.42
2023-04-16T15:27:36.310Z,16.15
2023-04-16T15:30:03.115Z,18.33
2023-04-16T15:32:31.260Z,14.38
2023-04-16T15:34:57.918Z,14.15
2023-04-16T15:37:24.489Z,16.00
2023-04-16T15:39:51.053Z,22.20
2023-04-16T15:42:17.777Z,15.00
2023-04-16T15:44:44.415Z,14.40
2023-04-16T15:47:11.097Z,16.98
2023-04-16T15:49:39.887Z,17.38
2023-04-16T15:52:06.667Z,14.80
2023-04-16T15:54:35.454Z,13.52
2023-04-16T15:57:04.917Z,14.75
2023-04-16T15:59:33.898Z,19.02
2023-04-16T16:02:03.644Z,15.90
2023-04-16T16:04:35.605Z,15.55
2023-04-16T16:07:04.733Z,13.88
2023-04-16T16:09:38.112Z,12.48
2023-04-16T16:12:04.800Z,15.10
2023-04-16T16:14:32.844Z,16.67
2023-04-16T16:16:59.702Z,23.02
2023-04-16T16:19:26.931Z,16.25
2023-04-16T16:21:55.573Z,16.67
2023-04-16T16:24:23.421Z,15.30
2023-04-16T16:27:01.882Z,16.80
2023-04-16T16:29:29.649Z,15.63
2023-04-16T16:31:56.291Z,13.40
2023-04-16T16:34:22.902Z,16.13
2023-04-16T16:36:53.643Z,14.23
2023-04-16T16:39:26.266Z,16.42
2023-04-16T16:41:52.818Z,13.63
2023-04-16T16:44:25.385Z,17.45
2023-04-16T16:46:52.028Z,17.10
2023-04-16T16:49:18.716Z,14.30
2023-04-16T16:51:46.492Z,14.40
2023-04-16T16:54:14.529Z,15.55
2023-04-16T16:56:41.550Z,15.43
2023-04-16T16:59:10.538Z,13.35
2023-04-16T17:01:37.566Z,17.85
2023-04-16T17:04:09.181Z,14.77
2023-04-16T17:06:40.646Z,17.38
2023-04-16T17:09:07.299Z,16.13
2023-04-16T17:11:33.920Z,16.55
2023-04-16T17:14:00.651Z,18.98
2023-04-16T17:16:27.245Z,17.98
2023-04-16T17:18:53.845Z,18.92
2023-04-16T17:21:20.858Z,14.27
2023-04-16T17:23:48.525Z,16.00
2023-04-16T17:26:15.236Z,15.70
2023-04-16T17:28:41.831Z,20.55
2023-04-16T17:31:08.512Z,16.13
2023-04-16T17:33:35.325Z,13.38
2023-04-16T17:36:02.835Z,15.38
2023-04-16T17:38:29.426Z,18.95
2023-04-16T17:40:56.896Z,15.07
2023-04-16T17:43:24.048Z,17.02
2023-04-16T17:45:53.002Z,18.20
2023-04-16T17:48:19.577Z,18.30
2023-04-16T17:50:48.344Z,16.08
2023-04-16T17:53:15.471Z,16.23
2023-04-16T17:55:54.156Z,17.55
2023-04-16T17:58:23.787Z,15.45
2023-04-16T18:00:52.711Z,15.05
2023-04-16T18:03:27.006Z,17.75
2023-04-16T18:05:53.864Z,15.60
2023-04-16T18:08:20.410Z,17.75
2023-04-16T18:10:49.707Z,16.02
2023-04-16T18:13:16.490Z,18.50
2023-04-16T18:15:43.401Z,15.60
2023-04-16T18:18:10.138Z,17.17
2023-04-16T18:20:36.722Z,17.98
2023-04-16T18:23:05.683Z,14.07
2023-04-16T18:25:34.977Z,14.45
2023-04-16T18:28:03.480Z,16.95
2023-04-16T18:30:32.580Z,18.17
2023-04-16T18:33:33.438Z,18.73
2023-04-16T18:35:46.810Z,16.83
2023-04-16T18:38:16.142Z,15.32
2023-04-16T18:40:44.590Z,15.95
2023-04-16T18:43:11.153Z,17.60
2023-04-16T18:45:40.794Z,18.75
2023-04-16T18:48:07.341Z,16.58
2023-04-16T18:50:33.943Z,17.75
2023-04-16T18:53:00.721Z,16.38
2023-04-16T18:55:30.477Z,15.90
2023-04-16T18:57:57.155Z,15.73
2023-04-16T19:00:32.316Z,17.02
2023-04-16T19:02:59.272Z,16.17
2023-04-16T19:05:28.987Z,16.38
2023-04-16T19:07:56.581Z,22.13
2023-04-16T19:10:23.122Z,16.02
2023-04-16T19:12:49.783Z,17.20
2023-04-16T19:15:18.962Z,16.02
2023-04-16T19:17:46.448Z,17.15
2023-04-16T19:20:13.160Z,18.70
2023-04-16T19:22:39.779Z,16.25
2023-04-16T19:25:09.084Z,17.17
2023-04-16T19:27:38.154Z,18.10
2023-04-16T19:30:08.370Z,18.08
2023-04-16T19:32:34.932Z,18.65
2023-04-16T19:35:02.061Z,19.00
2023-04-16T19:37:33.440Z,16.48
2023-04-16T19:40:01.608Z,19.38
2023-04-16T19:42:28.196Z,17.73
2023-04-16T19:44:56.053Z,20.98
2023-04-16T19:47:25.073Z,16.70
2023-04-16T19:49:54.174Z,17.15
2023-04-16T19:52:20.749Z,15.80
2023-04-16T19:54:48.337Z,16.98
2023-04-16T19:57:17.714Z,16.65
2023-04-16T19:59:44.354Z,14.60
2023-04-16T20:02:11.278Z,16.75
2023-04-16T20:04:37.978Z,18.33
2023-04-16T20:07:04.559Z,20.02
2023-04-16T20:09:33.732Z,17.20
2023-04-16T20:12:01.312Z,17.58
2023-04-16T20:14:27.856Z,18.05
2023-04-16T20:16:54.542Z,17.38
2023-04-16T20:19:21.969Z,16.23
2023-04-16T20:21:48.531Z,19.60
2023-04-16T20:24:17.792Z,19.92
2023-04-16T20:26:44.857Z,17.67
2023-04-16T20:29:12.061Z,17.88
2023-04-16T20:31:41.165Z,19.85
2023-04-16T20:34:07.703Z,19.27
2023-04-16T20:36:34.534Z,20.75
2023-04-16T20:39:06.978Z,16.60
2023-04-16T20:41:37.133Z,17.88
2023-04-16T20:44:07.866Z,18.65
2023-04-16T20:46:36.057Z,17.90
2023-04-16T20:49:02.710Z,18.60
2023-04-16T20:51:29.322Z,18.00
2023-04-16T20:53:56.166Z,20.67
2023-04-16T20:56:25.351Z,19.73
2023-04-16T20:58:53.469Z,17.48
2023-04-16T21:01:20.506Z,20.48
2023-04-16T21:03:47.251Z,17.52
2023-04-16T21:06:17.813Z,20.23
2023-04-16T21:08:46.753Z,19.00
2023-04-16T21:11:13.385Z,19.42
2023-04-16T21:13:42.382Z,21.83
2023-04-16T21:16:12.223Z,22.20
2023-04-16T21:18:39.021Z,18.77
2023-04-16T21:21:05.829Z,19.27
2023-04-16T21:23:32.441Z,20.58
2023-04-16T21:25:59.049Z,19.90
2023-04-16T21:28:25.714Z,18.83
2023-04-16T21:30:53.057Z,18.42
2023-04-16T21:33:19.624Z,20.85
2023-04-16T21:35:51.899Z,20.13
2023-04-16T21:40:48.423Z,18.60
2023-04-16T21:43:15.541Z,17.80
2023-04-16T21:45:42.159Z,20.75
2023-04-16T21:48:09.034Z,25.50
2023-04-16T21:50:35.912Z,25.23
2023-04-16T21:53:06.069Z,21.63
2023-04-16T21:55:44.236Z,22.88
2023-04-16T21:58:10.862Z,23.42
2023-04-16T22:00:37.486Z,20.73
2023-04-16T22:03:04.228Z,23.42
2023-04-16T22:05:33.050Z,22.80
2023-04-16T22:07:59.955Z,20.10
2023-04-16T22:10:27.941Z,21.55
2023-04-16T22:12:54.784Z,25.42
2023-04-16T22:15:21.468Z,19.00
2023-04-16T22:17:48.393Z,20.65
2023-04-16T22:20:16.570Z,24.10
2023-04-16T22:22:43.633Z,20.90
2023-04-16T22:25:11.239Z,23.52
2023-04-16T22:27:38.134Z,25.98
2023-04-16T22:30:11.048Z,23.83
2023-04-16T22:32:37.706Z,23.15
2023-04-16T22:35:05.086Z,23.95
2023-04-16T22:37:32.312Z,25.73
2023-04-16T22:39:58.928Z,23.98
2023-04-16T22:42:25.524Z,22.15
2023-04-16T22:44:52.151Z,25.50
2023-04-16T22:47:18.842Z,23.92
2023-04-16T22:49:45.566Z,21.45
2023-04-16T22:52:12.089Z,24.25
2023-04-16T22:54:40.853Z,26.50
2023-04-16T22:57:08.042Z,25.20
2023-04-16T22:59:34.596Z,26.08
2023-04-16T23:02:01.628Z,24.30
2023-04-16T23:04:28.375Z,23.38
2023-04-16T23:06:55.550Z,25.58
2023-04-16T23:09:22.396Z,27.63
2023-04-16T23:11:48.974Z,28.13
2023-04-16T23:14:17.986Z,23.63
2023-04-16T23:16:44.639Z,29.25
2023-04-16T23:19:14.711Z,23.42
2023-04-16T23:21:41.751Z,22.10
2023-04-16T23:24:17.067Z,25.55
2023-04-16T23:26:43.622Z,24.73
2023-04-16T23:29:10.482Z,29.77
2023-04-16T23:31:37.271Z,24.70
2023-04-16T23:34:04.068Z,25.92
2023-04-16T23:36:30.960Z,24.67
2023-04-16T23:38:57.557Z,27.00
2023-04-16T23:41:26.808Z,28.98
2023-04-16T23:43:55.801Z,24.23
2023-04-16T23:46:22.375Z,26.90
2023-04-16T23:48:48.930Z,25.52
2023-04-16T23:51:15.638Z,27.60
2023-04-16T23:53:42.206Z,24.20
2023-04-16T23:56:10.917Z,27.65
2023-04-16T23:58:37.608Z,28.77
